X  Tanca Dades meteorològiques de l'aviació METAR     LYNI Nis Airport
Temperatura
13°C Temperatura
2°C Rosada
47% Humitat



Vent
11 KM/H
7 MPH
3 M/S
6 NUS



350°
N
Condicions actuals

Sense núvols Sense núvols
Pressió 1009.82 (hPa) - 29.82 (inHg)
Visibilitat 6 (milla) - 9.7 (km)
Aeroport
Codi aeroport LYNI

Ubicació: Nis Airport
Distància: 63 (km)

Metar:
LYNI 201930Z 35006KT CAVOK 13/02 Q1010 NOSIG

Temps: 20-04-2024 21:30 CEST